Time;durP1;ratioP1;P1;durP2;ratioP2;P2;SDS_P1;SDS_P2;PMS_P1;PMS_P2;Temp;Humidity;BMP_temperature;BMP_pressure;BME280_temperature;BME280_humidity;BME280_pressure;Samples;Min_cycle;Max_cycle;Signal;HPM_P1;HPM_P2
2022/03/02 00:01:52;;;;;;;36.85;31.33;;;5.50;99.90;;;;;;4981364;28;20045;-74
2022/03/02 00:04:18;;;;;;;40.33;32.42;;;5.50;99.90;;;;;;4955192;28;20492;-75
2022/03/02 00:06:44;;;;;;;40.22;32.45;;;5.50;99.90;;;;;;4990540;28;20049;-74
2022/03/02 00:09:10;;;;;;;38.20;31.00;;;5.50;99.90;;;;;;4974975;28;20038;-74
2022/03/02 00:11:36;;;;;;;35.88;31.13;;;5.50;99.90;;;;;;5005923;28;20519;-75
2022/03/02 00:14:03;;;;;;;36.92;29.67;;;5.50;99.90;;;;;;4990455;28;20053;-78
2022/03/02 00:16:30;;;;;;;44.88;33.35;;;5.40;99.90;;;;;;4992569;28;20053;-78
2022/03/02 00:18:56;;;;;;;42.13;31.98;;;5.50;99.90;;;;;;4994884;28;20077;-78
2022/03/02 00:21:23;;;;;;;40.63;32.53;;;5.40;99.90;;;;;;4987126;28;20524;-78
2022/03/02 00:23:48;;;;;;;40.88;33.20;;;5.40;99.90;;;;;;4993756;28;20053;-78
2022/03/02 00:26:15;;;;;;;41.95;33.15;;;5.40;99.90;;;;;;4994962;28;20085;-78
2022/03/02 00:28:40;;;;;;;40.50;32.17;;;5.40;99.90;;;;;;5002683;28;20417;-78
2022/03/02 00:31:07;;;;;;;40.15;32.35;;;5.40;99.90;;;;;;4994976;28;20046;-78
2022/03/02 00:33:33;;;;;;;42.20;34.90;;;5.40;99.90;;;;;;4978942;28;20049;-77
2022/03/02 00:35:59;;;;;;;48.50;35.75;;;5.50;99.90;;;;;;4979341;28;20050;-78
2022/03/02 00:38:25;;;;;;;42.92;33.00;;;5.40;99.90;;;;;;4973963;28;20050;-78
2022/03/02 00:40:51;;;;;;;45.30;33.80;;;5.40;99.90;;;;;;4991156;28;20073;-78
2022/03/02 00:43:17;;;;;;;41.20;33.03;;;5.40;99.90;;;;;;4990935;28;20095;-78
2022/03/02 00:45:44;;;;;;;43.10;34.05;;;5.40;99.90;;;;;;4994227;28;20053;-76
2022/03/02 00:48:10;;;;;;;45.22;34.67;;;5.40;99.90;;;;;;5006798;28;20042;-77
2022/03/02 00:50:37;;;;;;;44.25;34.47;;;5.40;99.90;;;;;;5007402;28;20989;-77
2022/03/02 00:53:07;;;;;;;43.22;33.53;;;5.40;99.90;;;;;;4980254;28;20057;-77
2022/03/02 00:55:35;;;;;;;41.38;32.92;;;5.40;99.90;;;;;;4983917;28;20043;-76
2022/03/02 00:58:02;;;;;;;42.05;33.45;;;5.40;99.90;;;;;;4988710;28;20050;-77
2022/03/02 01:00:28;;;;;;;43.15;32.60;;;5.30;99.90;;;;;;4987280;28;20041;-76
2022/03/02 01:02:54;;;;;;;43.83;33.78;;;5.30;99.90;;;;;;4974375;28;20039;-77
2022/03/02 01:05:19;;;;;;;46.35;35.42;;;5.30;99.90;;;;;;4954326;28;20107;-76
2022/03/02 01:07:45;;;;;;;46.13;34.65;;;5.30;99.90;;;;;;4981048;28;20607;-77
2022/03/02 01:10:12;;;;;;;44.03;34.30;;;5.30;99.90;;;;;;4989481;28;20050;-76
2022/03/02 01:12:39;;;;;;;47.50;34.95;;;5.30;99.90;;;;;;4996239;28;20201;-78
2022/03/02 01:15:07;;;;;;;44.05;33.60;;;5.30;99.90;;;;;;4955560;28;20112;-77
2022/03/02 01:17:33;;;;;;;44.97;35.13;;;5.30;99.90;;;;;;5005766;28;20404;-78
2022/03/02 01:19:59;;;;;;;43.53;34.20;;;5.30;99.90;;;;;;5005982;28;20064;-77
2022/03/02 01:22:26;;;;;;;44.00;33.08;;;5.30;99.90;;;;;;4998819;28;20046;-77
2022/03/02 01:24:55;;;;;;;45.25;33.70;;;5.30;99.90;;;;;;4995144;28;20065;-78
2022/03/02 01:27:22;;;;;;;43.47;34.25;;;5.30;99.90;;;;;;4978929;28;20042;-77
2022/03/02 01:29:47;;;;;;;43.10;32.55;;;5.30;99.90;;;;;;4990736;28;20065;-76
2022/03/02 01:32:13;;;;;;;44.75;32.80;;;5.30;99.90;;;;;;4989870;28;20054;-77
2022/03/02 01:34:39;;;;;;;45.60;32.67;;;5.30;99.90;;;;;;4987879;28;20052;-77
2022/03/02 01:37:05;;;;;;;44.72;34.90;;;5.20;99.90;;;;;;4977914;28;20050;-77
2022/03/02 01:39:31;;;;;;;45.83;35.28;;;5.30;99.90;;;;;;4972657;28;20042;-77
2022/03/02 01:41:58;;;;;;;48.90;34.20;;;5.20;99.90;;;;;;4970070;28;20054;-77
2022/03/02 01:44:24;;;;;;;43.20;33.17;;;5.30;99.90;;;;;;4990042;28;20081;-77
2022/03/02 01:46:50;;;;;;;44.05;34.67;;;5.30;99.90;;;;;;4981410;28;20492;-78
2022/03/02 01:49:16;;;;;;;44.65;33.40;;;5.30;99.90;;;;;;4994169;28;20247;-78
2022/03/02 01:51:41;;;;;;;43.13;33.60;;;5.20;99.90;;;;;;4989958;28;20046;-77
2022/03/02 01:54:07;;;;;;;47.15;35.35;;;5.30;99.90;;;;;;4987018;28;20049;-77
2022/03/02 01:56:34;;;;;;;45.67;34.90;;;5.20;99.90;;;;;;4987631;28;20074;-77
2022/03/02 01:59:01;;;;;;;43.15;33.65;;;5.20;99.90;;;;;;5002967;28;20177;-77
2022/03/02 02:01:30;;;;;;;44.40;34.33;;;5.20;99.90;;;;;;4981294;28;20038;-77
2022/03/02 02:03:56;;;;;;;44.30;35.28;;;5.20;99.90;;;;;;4968798;28;20513;-76
2022/03/02 02:06:22;;;;;;;44.90;34.35;;;5.20;99.90;;;;;;4983672;28;20044;-76
2022/03/02 02:08:48;;;;;;;44.85;34.60;;;5.20;99.90;;;;;;4967498;28;20291;-77
2022/03/02 02:11:14;;;;;;;47.90;36.55;;;5.20;99.90;;;;;;4994454;28;20050;-77
2022/03/02 02:13:40;;;;;;;47.30;36.13;;;5.20;99.90;;;;;;5001556;28;20117;-78
2022/03/02 02:16:07;;;;;;;45.10;33.88;;;5.20;99.90;;;;;;4994878;28;20611;-77
2022/03/02 02:18:34;;;;;;;47.97;35.40;;;5.10;99.90;;;;;;5002016;28;20057;-78
2022/03/02 02:21:08;;;;;;;48.53;35.20;;;5.10;99.90;;;;;;4966414;28;20049;-78
2022/03/02 02:23:38;;;;;;;46.22;35.03;;;5.20;99.90;;;;;;4977642;28;20053;-75
2022/03/02 02:26:06;;;;;;;52.75;38.08;;;5.10;99.90;;;;;;5002692;28;20034;-76
2022/03/02 02:28:33;;;;;;;45.58;35.20;;;5.10;99.90;;;;;;5019067;28;20041;-77
2022/03/02 02:31:00;;;;;;;51.30;36.25;;;5.10;99.90;;;;;;4990086;28;20104;-77
2022/03/02 02:33:27;;;;;;;47.78;35.25;;;5.00;99.90;;;;;;5004577;28;20051;-76
2022/03/02 02:35:54;;;;;;;50.83;37.15;;;5.00;99.90;;;;;;4993895;28;20385;-77
2022/03/02 02:38:21;;;;;;;49.35;37.65;;;5.10;99.90;;;;;;4978198;28;20054;-77
2022/03/02 02:40:48;;;;;;;47.33;35.88;;;5.00;99.90;;;;;;5000408;28;20046;-77
2022/03/02 02:43:16;;;;;;;48.53;36.75;;;5.00;99.90;;;;;;5002337;28;20049;-76
2022/03/02 02:45:42;;;;;;;51.47;37.97;;;5.00;99.90;;;;;;4996271;28;20121;-77
2022/03/02 02:48:08;;;;;;;49.67;37.25;;;5.00;99.90;;;;;;4964728;28;20157;-77
2022/03/02 02:50:34;;;;;;;50.92;38.80;;;5.00;99.90;;;;;;4992083;28;20680;-79
2022/03/02 02:53:04;;;;;;;49.35;37.80;;;5.00;99.90;;;;;;5000780;28;20046;-77
2022/03/02 02:55:30;;;;;;;50.92;37.40;;;5.00;99.90;;;;;;4981919;28;20069;-77
2022/03/02 02:57:57;;;;;;;50.08;36.72;;;5.00;99.90;;;;;;4986107;28;20126;-77
2022/03/02 03:00:27;;;;;;;54.63;37.92;;;5.00;99.90;;;;;;4998504;28;20045;-77
2022/03/02 03:02:54;;;;;;;50.75;38.28;;;5.00;99.90;;;;;;4987992;28;20046;-77
2022/03/02 03:05:23;;;;;;;52.10;37.97;;;4.90;99.90;;;;;;4956267;28;20591;-78
2022/03/02 03:07:50;;;;;;;50.45;37.90;;;4.90;99.90;;;;;;4976582;28;20116;-77
2022/03/02 03:10:17;;;;;;;54.53;38.75;;;4.90;99.90;;;;;;4986833;28;20057;-77
2022/03/02 03:12:44;;;;;;;51.50;37.42;;;4.90;99.90;;;;;;4998185;28;20125;-76
2022/03/02 03:15:11;;;;;;;51.05;37.22;;;4.80;99.90;;;;;;4970385;28;20050;-76
2022/03/02 03:17:38;;;;;;;52.08;37.95;;;4.80;99.90;;;;;;4989742;28;20168;-76
2022/03/02 03:20:06;;;;;;;53.65;38.97;;;4.70;99.90;;;;;;4986891;28;20050;-76
2022/03/02 03:22:32;;;;;;;52.00;38.95;;;4.80;99.90;;;;;;4983724;28;20454;-76
2022/03/02 03:24:58;;;;;;;52.38;38.78;;;4.80;99.90;;;;;;4973136;28;20132;-77
2022/03/02 03:27:25;;;;;;;53.83;39.63;;;4.80;99.90;;;;;;5006832;28;20149;-76
2022/03/02 03:29:51;;;;;;;51.67;40.63;;;4.80;99.90;;;;;;4974282;28;20140;-77
2022/03/02 03:32:17;;;;;;;56.67;39.15;;;4.70;99.90;;;;;;4983910;28;20117;-76
2022/03/02 03:34:43;;;;;;;55.08;40.15;;;4.80;99.90;;;;;;4987082;28;20128;-78
2022/03/02 03:37:09;;;;;;;55.20;40.88;;;4.70;99.90;;;;;;4986552;28;20057;-78
2022/03/02 03:39:35;;;;;;;53.03;39.88;;;4.70;99.90;;;;;;4987390;28;20046;-76
2022/03/02 03:42:01;;;;;;;51.65;38.25;;;4.70;99.90;;;;;;4986915;28;20662;-76
2022/03/02 03:44:27;;;;;;;54.90;41.85;;;4.70;99.90;;;;;;4970836;28;20058;-77
2022/03/02 03:46:54;;;;;;;55.38;40.20;;;4.60;99.90;;;;;;4985916;28;20123;-76
2022/03/02 03:49:20;;;;;;;54.08;39.85;;;4.60;99.90;;;;;;4970743;28;20097;-77
2022/03/02 03:51:45;;;;;;;58.05;42.40;;;4.60;99.90;;;;;;4986373;28;20335;-77
2022/03/02 03:54:11;;;;;;;51.70;39.42;;;4.60;99.90;;;;;;4986609;28;20077;-77
2022/03/02 03:56:37;;;;;;;56.63;39.25;;;4.60;99.90;;;;;;4991870;28;20053;-77
2022/03/02 03:59:04;;;;;;;54.05;40.42;;;4.60;99.90;;;;;;4995245;28;20045;-77
2022/03/02 04:01:30;;;;;;;56.90;41.75;;;4.60;99.90;;;;;;4990065;28;20504;-78
2022/03/02 04:03:56;;;;;;;53.75;41.90;;;4.70;99.90;;;;;;4986465;28;20046;-77
2022/03/02 04:06:22;;;;;;;52.75;41.17;;;4.60;99.90;;;;;;4987275;28;20046;-77
2022/03/02 04:08:48;;;;;;;57.72;43.33;;;4.60;99.90;;;;;;4981668;28;20356;-77
2022/03/02 04:11:14;;;;;;;56.40;42.17;;;4.60;99.90;;;;;;4986823;28;20100;-77
2022/03/02 04:13:40;;;;;;;59.10;43.95;;;4.50;99.90;;;;;;4985492;28;20338;-77
2022/03/02 04:16:06;;;;;;;56.78;42.30;;;4.50;99.90;;;;;;4986576;28;20115;-77
2022/03/02 04:18:32;;;;;;;58.30;42.90;;;4.50;99.90;;;;;;4986627;28;20531;-77
2022/03/02 04:21:01;;;;;;;57.92;43.95;;;4.50;99.90;;;;;;4986585;28;20054;-77
2022/03/02 04:23:27;;;;;;;55.50;43.20;;;4.40;99.90;;;;;;4970477;28;20105;-77
2022/03/02 04:25:53;;;;;;;56.97;42.28;;;4.40;99.90;;;;;;4975442;28;20262;-77
2022/03/02 04:28:20;;;;;;;61.42;45.13;;;4.40;99.90;;;;;;4988928;28;20052;-75
2022/03/02 04:30:46;;;;;;;53.20;40.42;;;4.40;99.90;;;;;;5005363;28;20357;-78
2022/03/02 04:33:13;;;;;;;60.95;42.45;;;4.40;99.90;;;;;;4975956;28;20050;-78
2022/03/02 04:35:39;;;;;;;58.37;43.30;;;4.20;99.90;;;;;;4985388;28;20038;-76
2022/03/02 04:38:05;;;;;;;57.17;43.60;;;4.30;99.90;;;;;;4985236;28;20054;-76
2022/03/02 04:40:32;;;;;;;58.13;43.33;;;4.30;99.90;;;;;;4985389;28;20065;-76
2022/03/02 04:42:58;;;;;;;59.80;44.60;;;4.20;99.90;;;;;;4953006;28;20050;-78
2022/03/02 04:45:25;;;;;;;59.15;43.92;;;4.20;99.90;;;;;;4989707;28;20053;-76
2022/03/02 04:47:58;;;;;;;59.05;44.00;;;4.20;99.90;;;;;;4989294;28;20800;-76
2022/03/02 04:50:25;;;;;;;58.35;43.22;;;4.10;99.90;;;;;;4972744;28;20050;-77
2022/03/02 04:52:53;;;;;;;57.90;43.07;;;4.00;99.90;;;;;;4998237;28;20543;-77
2022/03/02 04:55:20;;;;;;;55.03;42.70;;;4.00;99.90;;;;;;4988538;28;20069;-77
2022/03/02 04:57:58;;;;;;;57.70;42.95;;;4.00;99.90;;;;;;4970288;28;20080;-77
2022/03/02 05:00:32;;;;;;;58.42;42.38;;;3.90;99.90;;;;;;4994470;28;20132;-77
2022/03/02 05:03:01;;;;;;;57.92;43.20;;;3.90;99.90;;;;;;4991434;28;20522;-77
2022/03/02 05:05:28;;;;;;;56.95;42.92;;;3.80;99.90;;;;;;4987017;28;20512;-77
2022/03/02 05:07:54;;;;;;;59.33;42.93;;;3.80;99.90;;;;;;4975642;28;20050;-77
2022/03/02 05:10:21;;;;;;;56.77;42.50;;;3.80;99.90;;;;;;4967373;28;20045;-77
2022/03/02 05:12:47;;;;;;;56.38;42.25;;;3.70;99.90;;;;;;4968404;28;20054;-77
2022/03/02 05:15:14;;;;;;;57.80;44.25;;;3.60;99.90;;;;;;4992321;28;20057;-77
2022/03/02 05:17:41;;;;;;;58.47;44.83;;;3.60;99.90;;;;;;4999956;28;20121;-77
2022/03/02 05:20:08;;;;;;;60.07;45.20;;;3.60;99.90;;;;;;4977902;28;20046;-77
2022/03/02 05:22:35;;;;;;;59.17;44.53;;;3.60;99.90;;;;;;4974903;28;20158;-77
2022/03/02 05:25:02;;;;;;;64.63;45.70;;;3.50;99.90;;;;;;4989824;28;20643;-77
2022/03/02 05:27:28;;;;;;;60.63;46.90;;;3.50;99.90;;;;;;4989738;28;20046;-78
2022/03/02 05:29:53;;;;;;;64.83;46.27;;;3.50;99.90;;;;;;4983376;28;20370;-77
2022/03/02 05:32:19;;;;;;;61.73;45.37;;;3.50;99.90;;;;;;4955210;28;20057;-76
2022/03/02 05:34:45;;;;;;;65.18;46.72;;;3.40;99.90;;;;;;4970292;28;20419;-77
2022/03/02 05:37:11;;;;;;;61.57;45.80;;;3.40;99.90;;;;;;4986035;28;20038;-77
2022/03/02 05:39:37;;;;;;;62.47;47.03;;;3.30;99.90;;;;;;4994636;28;20436;-77
2022/03/02 05:42:03;;;;;;;60.15;45.97;;;3.30;99.90;;;;;;4985710;28;20050;-77
2022/03/02 05:44:29;;;;;;;62.40;47.30;;;3.30;99.90;;;;;;4979055;28;20400;-77
2022/03/02 05:46:55;;;;;;;64.77;47.50;;;3.20;99.90;;;;;;4990280;28;20201;-77
2022/03/02 05:49:21;;;;;;;62.60;48.77;;;3.20;99.90;;;;;;4995358;28;20050;-77
2022/03/02 05:51:47;;;;;;;63.50;47.83;;;3.20;99.90;;;;;;4991213;28;20038;-77
2022/03/02 05:54:13;;;;;;;64.83;47.67;;;3.10;99.90;;;;;;4987993;28;20097;-77
2022/03/02 05:56:40;;;;;;;64.30;48.40;;;3.10;99.90;;;;;;4966909;28;20061;-77
2022/03/02 05:59:08;;;;;;;68.93;50.40;;;3.00;99.90;;;;;;5008395;28;20135;-77
2022/03/02 06:01:34;;;;;;;64.27;48.07;;;3.00;99.90;;;;;;4977943;28;20042;-77
2022/03/02 06:04:02;;;;;;;70.93;50.47;;;3.00;99.90;;;;;;5002804;28;20058;-76
2022/03/02 06:06:29;;;;;;;67.17;50.40;;;2.90;99.90;;;;;;4951660;28;20492;-75
2022/03/02 06:08:59;;;;;;;65.47;50.40;;;2.90;99.90;;;;;;4970514;28;20034;-77
2022/03/02 06:11:29;;;;;;;68.38;51.53;;;2.90;99.90;;;;;;4986083;28;20393;-78
2022/03/02 06:13:55;;;;;;;69.95;51.58;;;2.90;99.90;;;;;;4984652;28;20062;-77
2022/03/02 06:16:21;;;;;;;66.90;49.47;;;2.80;99.90;;;;;;4985991;28;20061;-77
2022/03/02 06:18:47;;;;;;;63.00;48.90;;;2.80;99.90;;;;;;4977490;28;20137;-77
2022/03/02 06:21:20;;;;;;;67.97;49.43;;;2.80;99.90;;;;;;4992868;28;20134;-76
2022/03/02 06:23:47;;;;;;;68.80;50.73;;;2.70;99.90;;;;;;4973517;28;20053;-77
2022/03/02 06:26:13;;;;;;;67.33;50.67;;;2.70;99.90;;;;;;5006463;28;20046;-77
2022/03/02 06:28:38;;;;;;;73.33;53.97;;;2.70;99.90;;;;;;4962268;28;20046;-75
2022/03/02 06:31:04;;;;;;;75.07;52.33;;;2.70;99.90;;;;;;4962016;28;20497;-75
2022/03/02 06:33:30;;;;;;;71.47;51.87;;;2.60;99.90;;;;;;4970647;28;20042;-75
2022/03/02 06:35:56;;;;;;;71.70;52.37;;;2.60;99.90;;;;;;4970542;28;20501;-75
2022/03/02 06:38:22;;;;;;;73.23;53.10;;;2.60;99.90;;;;;;5013774;28;20050;-76
2022/03/02 06:40:57;;;;;;;72.47;52.03;;;2.50;99.90;;;;;;4951218;28;20493;-77
2022/03/02 06:43:25;;;;;;;70.87;52.23;;;2.50;99.90;;;;;;5007697;28;20443;-77
2022/03/02 06:46:15;;;;;;;72.80;53.13;;;2.50;99.90;;;;;;4989680;28;20073;-77
2022/03/02 06:48:57;;;;;;;71.23;53.00;;;2.50;99.90;;;;;;4980684;28;20137;-74
2022/03/02 06:51:24;;;;;;;70.13;52.13;;;2.50;99.90;;;;;;4985122;28;20112;-74
2022/03/02 06:53:51;;;;;;;70.30;50.83;;;2.40;99.90;;;;;;4966160;28;20116;-75
2022/03/02 06:56:19;;;;;;;74.30;53.07;;;2.40;99.90;;;;;;4975444;28;20045;-75
2022/03/02 06:58:55;;;;;;;65.67;50.57;;;2.40;99.90;;;;;;4983683;28;20382;-77
2022/03/02 07:01:29;;;;;;;68.93;53.47;;;2.40;99.90;;;;;;4970204;28;20050;-77
2022/03/02 07:03:58;;;;;;;71.57;52.57;;;2.40;99.90;;;;;;4976225;28;20050;-76
2022/03/02 07:06:25;;;;;;;70.47;52.00;;;2.30;99.90;;;;;;4993431;28;20129;-76
2022/03/02 07:08:59;;;;;;;70.43;52.50;;;2.30;99.90;;;;;;4987541;28;20042;-76
2022/03/02 07:11:25;;;;;;;71.27;52.40;;;2.40;99.90;;;;;;4971800;28;20540;-75
2022/03/02 07:13:51;;;;;;;70.50;51.87;;;2.40;99.90;;;;;;4967149;28;20116;-76
2022/03/02 07:16:18;;;;;;;71.00;52.67;;;2.50;99.90;;;;;;5002817;28;20038;-76
2022/03/02 07:18:45;;;;;;;65.17;50.17;;;2.60;99.90;;;;;;4980464;28;20070;-76
2022/03/02 07:21:14;;;;;;;66.33;49.83;;;2.60;99.90;;;;;;4996606;28;20044;-76
2022/03/02 07:23:46;;;;;;;67.73;50.50;;;2.70;99.90;;;;;;4978166;28;20046;-76
2022/03/02 07:26:17;;;;;;;68.27;51.23;;;2.70;99.90;;;;;;4997363;28;20153;-76
2022/03/02 07:28:47;;;;;;;63.47;51.33;;;2.80;99.90;;;;;;4986726;28;20050;-77
2022/03/02 07:31:14;;;;;;;66.43;49.50;;;2.90;99.90;;;;;;4985452;28;20396;-76
2022/03/02 07:33:42;;;;;;;69.53;50.57;;;2.80;99.90;;;;;;4976715;28;20050;-76
2022/03/02 07:36:10;;;;;;;67.13;50.67;;;2.90;99.90;;;;;;4984869;28;20046;-78
2022/03/02 07:38:37;;;;;;;60.97;48.80;;;3.00;99.90;;;;;;4982966;28;20058;-75
2022/03/02 07:41:10;;;;;;;64.97;47.47;;;3.10;99.90;;;;;;5000985;28;20405;-76
2022/03/02 07:43:38;;;;;;;59.30;46.57;;;3.20;99.90;;;;;;4981854;28;20042;-72
2022/03/02 07:46:10;;;;;;;58.57;45.47;;;3.30;99.90;;;;;;4986212;28;20042;-72
2022/03/02 07:48:37;;;;;;;61.17;46.17;;;3.40;99.90;;;;;;4985154;28;20109;-72
2022/03/02 07:51:06;;;;;;;58.07;44.10;;;3.40;99.90;;;;;;5001644;28;20082;-73
2022/03/02 07:53:40;;;;;;;58.27;45.67;;;3.50;99.90;;;;;;4984655;28;20085;-72
2022/03/02 07:56:11;;;;;;;59.67;46.17;;;3.60;99.90;;;;;;4990094;28;20050;-81
2022/03/02 07:58:39;;;;;;;57.40;43.30;;;3.60;99.90;;;;;;4990000;28;20046;-82
2022/03/02 08:01:06;;;;;;;56.17;42.27;;;3.60;99.90;;;;;;4999201;28;20085;-82
2022/03/02 08:03:35;;;;;;;55.27;42.53;;;3.70;99.90;;;;;;4976585;28;20347;-83
2022/03/02 08:06:01;;;;;;;54.97;42.37;;;3.70;99.90;;;;;;4975514;28;20481;-83
2022/03/02 08:08:27;;;;;;;55.37;41.17;;;3.80;99.90;;;;;;4999508;28;20043;-83
2022/03/02 08:10:53;;;;;;;54.13;41.00;;;3.90;99.90;;;;;;4968691;28;20455;-83
2022/03/02 08:13:19;;;;;;;52.77;40.67;;;4.00;99.90;;;;;;4977425;28;20049;-84
2022/03/02 08:15:45;;;;;;;54.72;40.83;;;4.10;99.90;;;;;;4986512;28;20105;-75
2022/03/02 08:18:11;;;;;;;49.27;39.00;;;4.30;99.90;;;;;;4966519;28;20053;-77
2022/03/02 08:20:46;;;;;;;51.27;39.50;;;4.40;99.90;;;;;;5010202;28;20056;-75
2022/03/02 08:23:12;;;;;;;49.17;38.17;;;4.50;99.90;;;;;;4982804;28;20927;-75
2022/03/02 08:25:38;;;;;;;47.90;37.92;;;4.70;99.90;;;;;;4983115;28;20515;-75
2022/03/02 08:28:12;;;;;;;50.00;36.40;;;4.80;99.90;;;;;;4983288;28;20125;-75
2022/03/02 08:30:38;;;;;;;45.63;36.80;;;5.00;99.90;;;;;;4972281;28;20042;-75
2022/03/02 08:33:04;;;;;;;44.65;34.67;;;5.10;99.90;;;;;;4994409;28;20108;-77
2022/03/02 08:35:34;;;;;;;46.67;34.45;;;5.30;99.90;;;;;;5002523;28;20042;-75
2022/03/02 08:38:01;;;;;;;46.72;34.10;;;5.40;99.90;;;;;;5002170;28;20077;-75
2022/03/02 08:40:27;;;;;;;44.03;32.08;;;5.50;99.90;;;;;;4980605;28;20263;-75
2022/03/02 08:42:54;;;;;;;43.50;32.20;;;5.60;99.90;;;;;;5002162;28;20337;-75
2022/03/02 08:45:20;;;;;;;43.40;32.33;;;5.70;99.90;;;;;;4998446;28;20046;-75
2022/03/02 08:47:46;;;;;;;43.53;31.75;;;5.80;99.90;;;;;;4998332;28;20048;-75
2022/03/02 08:50:12;;;;;;;43.28;31.27;;;5.80;99.90;;;;;;4991679;28;20038;-75
2022/03/02 08:52:37;;;;;;;40.40;30.73;;;6.00;99.90;;;;;;4987459;28;20050;-77
2022/03/02 08:55:08;;;;;;;39.03;29.73;;;6.00;99.90;;;;;;4971011;28;20046;-78
2022/03/02 08:57:34;;;;;;;40.50;30.35;;;6.10;99.90;;;;;;4986292;28;20052;-74
2022/03/02 09:00:03;;;;;;;39.03;29.13;;;6.20;99.90;;;;;;4995292;28;20563;-76
2022/03/02 09:02:30;;;;;;;39.30;28.95;;;6.20;99.90;;;;;;4971038;28;20038;-76
2022/03/02 09:05:01;;;;;;;36.55;28.60;;;6.30;99.90;;;;;;5001603;28;20050;-75
2022/03/02 09:07:26;;;;;;;37.60;29.23;;;6.40;99.90;;;;;;4982084;28;20725;-76
2022/03/02 09:09:52;;;;;;;37.92;28.00;;;6.40;99.90;;;;;;4969885;28;20042;-74
2022/03/02 09:12:18;;;;;;;39.15;30.02;;;6.50;99.90;;;;;;4950363;28;20040;-76
2022/03/02 09:14:44;;;;;;;35.38;27.20;;;6.60;99.90;;;;;;4966636;28;20058;-76
2022/03/02 09:17:11;;;;;;;36.75;28.08;;;6.60;99.90;;;;;;5018097;28;20050;-76
2022/03/02 09:19:37;;;;;;;34.05;26.98;;;6.70;99.90;;;;;;4967576;28;20081;-76
2022/03/02 09:22:06;;;;;;;39.75;28.25;;;6.70;99.90;;;;;;4982686;28;20077;-76
2022/03/02 09:24:34;;;;;;;34.88;27.88;;;6.60;99.90;;;;;;4994397;28;20077;-76
2022/03/02 09:27:01;;;;;;;36.17;27.55;;;6.70;99.90;;;;;;4987207;28;20657;-75
2022/03/02 09:29:31;;;;;;;34.60;28.20;;;6.80;99.90;;;;;;5001610;28;20277;-76
2022/03/02 09:31:59;;;;;;;36.30;27.42;;;6.80;99.90;;;;;;5002371;28;20360;-76
2022/03/02 09:34:27;;;;;;;35.83;27.58;;;6.80;99.90;;;;;;4984660;28;20063;-76
2022/03/02 09:36:54;;;;;;;37.55;27.95;;;6.90;99.90;;;;;;4967018;28;20414;-76
2022/03/02 09:39:23;;;;;;;33.55;25.63;;;6.90;99.90;;;;;;4969147;28;20117;-76
2022/03/02 09:42:12;;;;;;;35.22;25.67;;;7.00;99.90;;;;;;4985201;28;20090;-76
2022/03/02 09:44:46;;;;;;;36.28;27.95;;;7.00;99.90;;;;;;4965307;28;20046;-75
2022/03/02 09:47:19;;;;;;;34.97;26.95;;;7.10;99.90;;;;;;5006763;28;20042;-76
2022/03/02 09:49:55;;;;;;;36.70;28.17;;;7.20;99.90;;;;;;4985214;28;20097;-75
2022/03/02 09:52:22;;;;;;;36.22;26.80;;;7.30;99.90;;;;;;4995747;28;20043;-75
2022/03/02 09:54:54;;;;;;;33.95;25.90;;;7.30;99.90;;;;;;4967507;28;20380;-76
2022/03/02 09:57:21;;;;;;;33.90;25.70;;;7.40;99.90;;;;;;4985883;28;20131;-76
2022/03/02 09:59:56;;;;;;;33.13;26.05;;;7.50;99.90;;;;;;4988596;28;20041;-76
2022/03/02 10:02:40;;;;;;;33.65;25.60;;;7.50;99.90;;;;;;4975865;28;20042;-75
2022/03/02 10:05:09;;;;;;;33.05;24.85;;;7.60;99.90;;;;;;4996136;28;20046;-76
2022/03/02 10:07:40;;;;;;;33.63;26.02;;;7.70;99.90;;;;;;4984765;28;20038;-76
2022/03/02 10:10:11;;;;;;;32.75;24.48;;;7.80;99.90;;;;;;4981309;28;20054;-76
2022/03/02 10:12:38;;;;;;;26.85;20.15;;;7.80;99.90;;;;;;4972393;28;20042;-75
2022/03/02 10:15:10;;;;;;;30.30;21.48;;;7.90;99.90;;;;;;5011995;28;20051;-75
2022/03/02 10:17:38;;;;;;;31.65;21.65;;;7.90;99.90;;;;;;4994463;28;20375;-76
2022/03/02 10:20:10;;;;;;;28.63;22.20;;;8.00;99.90;;;;;;4992517;28;20080;-75
2022/03/02 10:23:14;;;;;;;27.48;21.50;;;8.20;99.90;;;;;;4982602;28;20392;-75
2022/03/02 10:26:08;;;;;;;28.38;21.13;;;8.30;99.90;;;;;;4982061;28;20527;-75
2022/03/02 10:28:59;;;;;;;29.33;21.67;;;8.40;99.30;;;;;;5000497;28;20046;-76
2022/03/02 10:31:30;;;;;;;;;;;8.40;99.50;;;;;;5013843;28;20285;-76
2022/03/02 10:34:14;;;;;;;27.83;20.10;;;8.30;96.00;;;;;;4981370;28;19937;-76
2022/03/02 10:36:42;;;;;;;26.35;20.08;;;8.30;98.80;;;;;;4965356;28;20358;-74
2022/03/02 10:39:13;;;;;;;31.48;20.05;;;8.50;97.80;;;;;;4965019;28;20078;-76
2022/03/02 10:41:43;;;;;;;26.25;20.15;;;8.50;97.20;;;;;;4971210;28;20050;-76
2022/03/02 10:44:36;;;;;;;26.65;20.95;;;8.60;95.70;;;;;;4992045;28;20412;-75
2022/03/02 10:47:04;;;;;;;25.88;19.58;;;8.60;96.80;;;;;;4976017;28;20113;-75
2022/03/02 10:49:31;;;;;;;27.95;20.85;;;8.70;96.70;;;;;;4981369;28;20046;-76
2022/03/02 10:52:00;;;;;;;24.52;19.63;;;8.70;96.00;;;;;;4983458;28;20048;-74
2022/03/02 10:54:31;;;;;;;27.27;20.45;;;8.80;95.80;;;;;;4974290;28;20058;-77
2022/03/02 10:57:02;;;;;;;25.83;20.35;;;8.80;95.70;;;;;;4980065;28;20044;-73
2022/03/02 10:59:31;;;;;;;28.58;19.38;;;8.90;94.90;;;;;;4978697;28;20111;-73
2022/03/02 11:02:00;;;;;;;23.83;19.45;;;8.90;95.10;;;;;;4974396;28;20068;-73
2022/03/02 11:04:29;;;;;;;27.50;20.08;;;8.90;95.10;;;;;;4976447;28;20054;-73
2022/03/02 11:06:56;;;;;;;28.90;21.67;;;8.90;95.30;;;;;;5015656;28;20065;-73
2022/03/02 11:09:25;;;;;;;28.00;22.15;;;9.00;96.40;;;;;;4972467;28;20363;-73
2022/03/02 11:11:54;;;;;;;29.45;21.90;;;9.00;95.30;;;;;;4967994;28;20054;-74
2022/03/02 11:14:20;;;;;;;29.55;22.25;;;9.10;95.40;;;;;;4994017;28;20054;-73
2022/03/02 11:16:47;;;;;;;26.75;21.10;;;9.20;95.50;;;;;;4997795;28;20057;-72
2022/03/02 11:19:16;;;;;;;30.98;22.83;;;9.20;95.60;;;;;;4978066;28;20073;-73
2022/03/02 11:21:44;;;;;;;30.02;22.65;;;9.20;95.90;;;;;;4966701;28;20046;-74
2022/03/02 11:24:17;;;;;;;27.92;21.80;;;9.20;95.80;;;;;;4987385;28;20141;-74
2022/03/02 11:26:44;;;;;;;27.58;21.52;;;9.30;94.90;;;;;;4981861;28;20179;-73
2022/03/02 11:29:16;;;;;;;28.67;22.45;;;9.30;94.80;;;;;;4959641;28;20053;-75
2022/03/02 11:31:47;;;;;;;32.38;20.95;;;9.40;94.30;;;;;;4994585;28;20056;-75
2022/03/02 11:34:19;;;;;;;28.92;22.95;;;9.30;95.00;;;;;;5003589;28;20061;-75
2022/03/02 11:36:49;;;;;;;28.08;22.45;;;9.30;95.70;;;;;;4972877;28;20306;-74
2022/03/02 11:39:18;;;;;;;31.07;22.90;;;9.50;94.90;;;;;;4985232;28;20416;-75
2022/03/02 11:41:45;;;;;;;31.58;24.52;;;9.40;94.70;;;;;;4969635;28;20348;-73
2022/03/02 11:44:31;;;;;;;29.67;22.88;;;9.40;95.30;;;;;;4980390;28;20065;-73
2022/03/02 11:46:58;;;;;;;28.40;21.45;;;9.40;95.60;;;;;;5005692;28;20058;-75
2022/03/02 11:49:44;;;;;;;29.30;22.33;;;9.40;95.60;;;;;;4982254;28;20488;-76
2022/03/02 11:52:13;;;;;;;29.95;21.80;;;9.50;94.10;;;;;;4987122;28;20469;-76
2022/03/02 11:54:43;;;;;;;29.00;21.70;;;9.50;94.00;;;;;;4971616;28;20054;-76
2022/03/02 11:57:09;;;;;;;27.35;22.00;;;9.60;94.10;;;;;;4978756;28;20054;-75
2022/03/02 11:59:37;;;;;;;27.08;21.65;;;9.60;94.10;;;;;;4988966;28;20038;-74
2022/03/02 12:02:28;;;;;;;28.83;22.10;;;9.60;93.70;;;;;;4984420;28;20084;-76
2022/03/02 12:05:02;;;;;;;26.67;21.00;;;9.70;94.40;;;;;;4997270;28;20508;-74
2022/03/02 12:07:41;;;;;;;28.35;21.33;;;9.80;93.40;;;;;;4987418;28;20037;-75
2022/03/02 12:10:24;;;;;;;31.52;24.40;;;9.70;92.90;;;;;;4986017;28;20485;-75
2022/03/02 12:12:52;;;;;;;29.10;21.73;;;9.70;92.40;;;;;;5005020;28;20564;-75
2022/03/02 12:15:20;;;;;;;30.30;21.88;;;9.80;92.80;;;;;;5004928;28;20057;-74
2022/03/02 12:17:48;;;;;;;33.33;23.40;;;9.90;92.70;;;;;;4972317;28;20050;-74
2022/03/02 12:20:22;;;;;;;28.30;22.65;;;9.90;93.20;;;;;;4990089;28;20366;-74
2022/03/02 12:22:54;;;;;;;29.80;22.48;;;10.00;92.90;;;;;;4986757;28;20565;-75
2022/03/02 12:25:23;;;;;;;32.70;23.45;;;10.00;92.60;;;;;;4998959;28;20081;-74
2022/03/02 12:28:08;;;;;;;31.80;24.60;;;10.00;93.20;;;;;;4990525;28;20496;-73
2022/03/02 12:30:36;;;;;;;30.83;23.00;;;10.10;93.30;;;;;;4972335;28;20100;-74
2022/03/02 12:33:06;;;;;;;28.35;21.45;;;10.20;93.00;;;;;;4970179;28;20041;-74
2022/03/02 12:35:32;;;;;;;27.20;22.02;;;10.20;92.10;;;;;;5002273;28;20133;-73
2022/03/02 12:38:02;;;;;;;29.83;23.27;;;10.20;92.10;;;;;;4989330;28;20500;-75
2022/03/02 12:40:31;;;;;;;;;;;10.20;91.80;;;;;;4995443;28;20058;-74
2022/03/02 12:42:57;;;;;;;29.25;22.27;;;10.20;92.30;;;;;;4966536;28;20730;-75
2022/03/02 12:45:24;;;;;;;27.80;21.27;;;10.20;92.10;;;;;;4957906;28;20045;-73